sensor_id;sensor_type;location;lat;lon;timestamp;pressure;altitude;pressure_sealevel;temperature
45393;BMP280;31129;44.810;10.334;2023-03-19T00:01:40;101060.91;;;11.66
45393;BMP280;31129;44.810;10.334;2023-03-19T00:04:06;101063.94;;;11.68
45393;BMP280;31129;44.810;10.334;2023-03-19T00:06:32;101068.78;;;11.64
45393;BMP280;31129;44.810;10.334;2023-03-19T00:08:57;101065.63;;;11.56
45393;BMP280;31129;44.810;10.334;2023-03-19T00:11:22;101058.47;;;11.59
45393;BMP280;31129;44.810;10.334;2023-03-19T00:13:48;101059.47;;;11.70
45393;BMP280;31129;44.810;10.334;2023-03-19T00:16:13;101060.13;;;11.65
45393;BMP280;31129;44.810;10.334;2023-03-19T00:18:39;101062.72;;;11.69
45393;BMP280;31129;44.810;10.334;2023-03-19T00:21:04;101053.84;;;11.74
45393;BMP280;31129;44.810;10.334;2023-03-19T00:23:30;101054.16;;;11.76
45393;BMP280;31129;44.810;10.334;2023-03-19T00:25:56;101051.28;;;11.70
45393;BMP280;31129;44.810;10.334;2023-03-19T00:28:21;101052.34;;;11.73
45393;BMP280;31129;44.810;10.334;2023-03-19T00:30:47;101058.47;;;11.68
45393;BMP280;31129;44.810;10.334;2023-03-19T00:33:13;101055.00;;;11.58
45393;BMP280;31129;44.810;10.334;2023-03-19T00:35:39;101042.53;;;11.66
45393;BMP280;31129;44.810;10.334;2023-03-19T00:38:05;101050.72;;;11.66
45393;BMP280;31129;44.810;10.334;2023-03-19T00:40:30;101055.75;;;11.59
45393;BMP280;31129;44.810;10.334;2023-03-19T00:42:56;101054.22;;;11.67
45393;BMP280;31129;44.810;10.334;2023-03-19T00:45:21;101051.50;;;11.58
45393;BMP280;31129;44.810;10.334;2023-03-19T00:47:47;101041.78;;;11.57
45393;BMP280;31129;44.810;10.334;2023-03-19T00:50:12;101046.22;;;11.54
45393;BMP280;31129;44.810;10.334;2023-03-19T00:52:38;101042.75;;;11.45
45393;BMP280;31129;44.810;10.334;2023-03-19T00:55:03;101043.41;;;11.30
45393;BMP280;31129;44.810;10.334;2023-03-19T00:57:29;101045.00;;;11.04
45393;BMP280;31129;44.810;10.334;2023-03-19T00:59:54;101047.72;;;11.13
45393;BMP280;31129;44.810;10.334;2023-03-19T01:02:20;101044.84;;;11.08
45393;BMP280;31129;44.810;10.334;2023-03-19T01:04:49;101030.44;;;10.98
45393;BMP280;31129;44.810;10.334;2023-03-19T01:07:14;101031.31;;;11.13
45393;BMP280;31129;44.810;10.334;2023-03-19T01:09:40;101025.25;;;11.09
45393;BMP280;31129;44.810;10.334;2023-03-19T01:12:06;101028.06;;;10.82
45393;BMP280;31129;44.810;10.334;2023-03-19T01:14:32;101031.53;;;10.91
45393;BMP280;31129;44.810;10.334;2023-03-19T01:16:57;101025.44;;;10.96
45393;BMP280;31129;44.810;10.334;2023-03-19T01:19:26;101032.72;;;10.99
45393;BMP280;31129;44.810;10.334;2023-03-19T01:21:51;101036.66;;;10.98
45393;BMP280;31129;44.810;10.334;2023-03-19T01:24:19;101031.81;;;10.93
45393;BMP280;31129;44.810;10.334;2023-03-19T01:26:50;101027.25;;;10.99
45393;BMP280;31129;44.810;10.334;2023-03-19T01:29:26;101027.59;;;10.92
45393;BMP280;31129;44.810;10.334;2023-03-19T01:31:53;101025.00;;;10.98
45393;BMP280;31129;44.810;10.334;2023-03-19T01:34:37;101029.25;;;10.99
45393;BMP280;31129;44.810;10.334;2023-03-19T01:37:07;101038.19;;;10.99
45393;BMP280;31129;44.810;10.334;2023-03-19T01:39:33;101032.75;;;10.90
45393;BMP280;31129;44.810;10.334;2023-03-19T01:42:03;101026.19;;;10.97
45393;BMP280;31129;44.810;10.334;2023-03-19T01:44:47;101029.38;;;10.95
45393;BMP280;31129;44.810;10.334;2023-03-19T01:47:36;101030.59;;;11.03
45393;BMP280;31129;44.810;10.334;2023-03-19T01:50:44;101030.59;;;10.94
45393;BMP280;31129;44.810;10.334;2023-03-19T01:53:28;101020.44;;;11.04
45393;BMP280;31129;44.810;10.334;2023-03-19T01:56:23;101018.19;;;10.84
45393;BMP280;31129;44.810;10.334;2023-03-19T01:59:15;101018.03;;;10.88
45393;BMP280;31129;44.810;10.334;2023-03-19T02:02:05;101013.78;;;10.78
45393;BMP280;31129;44.810;10.334;2023-03-19T02:04:35;101015.91;;;10.83
45393;BMP280;31129;44.810;10.334;2023-03-19T02:07:03;101006.84;;;10.67
45393;BMP280;31129;44.810;10.334;2023-03-19T02:09:30;101015.78;;;10.68
45393;BMP280;31129;44.810;10.334;2023-03-19T02:11:59;101010.94;;;10.72
45393;BMP280;31129;44.810;10.334;2023-03-19T02:14:26;101010.78;;;10.76
45393;BMP280;31129;44.810;10.334;2023-03-19T02:16:52;101008.38;;;10.68
45393;BMP280;31129;44.810;10.334;2023-03-19T02:22:25;101008.34;;;10.87
45393;BMP280;31129;44.810;10.334;2023-03-19T02:27:23;101015.63;;;10.90
45393;BMP280;31129;44.810;10.334;2023-03-19T02:29:49;101014.41;;;10.82
45393;BMP280;31129;44.810;10.334;2023-03-19T02:32:15;101006.56;;;10.75
45393;BMP280;31129;44.810;10.334;2023-03-19T02:34:42;101003.97;;;10.71
45393;BMP280;31129;44.810;10.334;2023-03-19T02:37:13;101005.78;;;10.65
45393;BMP280;31129;44.810;10.334;2023-03-19T02:39:48;101000.16;;;10.78
45393;BMP280;31129;44.810;10.334;2023-03-19T02:42:16;101000.47;;;10.80
45393;BMP280;31129;44.810;10.334;2023-03-19T02:44:43;101002.31;;;10.74
45393;BMP280;31129;44.810;10.334;2023-03-19T02:47:10;100996.66;;;10.77
45393;BMP280;31129;44.810;10.334;2023-03-19T02:49:35;101003.78;;;10.93
45393;BMP280;31129;44.810;10.334;2023-03-19T02:52:01;101001.31;;;10.95
45393;BMP280;31129;44.810;10.334;2023-03-19T02:54:26;100998.19;;;10.78
45393;BMP280;31129;44.810;10.334;2023-03-19T02:56:52;100993.47;;;10.79
45393;BMP280;31129;44.810;10.334;2023-03-19T02:59:18;100995.94;;;10.77
45393;BMP280;31129;44.810;10.334;2023-03-19T03:01:43;100998.03;;;10.82
45393;BMP280;31129;44.810;10.334;2023-03-19T03:04:08;101000.88;;;10.96
45393;BMP280;31129;44.810;10.334;2023-03-19T03:06:35;100994.09;;;10.92
45393;BMP280;31129;44.810;10.334;2023-03-19T03:09:01;100990.28;;;10.89
45393;BMP280;31129;44.810;10.334;2023-03-19T03:11:27;101000.91;;;10.78
45393;BMP280;31129;44.810;10.334;2023-03-19T03:13:53;100995.88;;;10.86
45393;BMP280;31129;44.810;10.334;2023-03-19T03:16:18;100998.19;;;10.87
45393;BMP280;31129;44.810;10.334;2023-03-19T03:18:44;101000.31;;;10.83
45393;BMP280;31129;44.810;10.334;2023-03-19T03:21:09;100999.38;;;10.86
45393;BMP280;31129;44.810;10.334;2023-03-19T03:23:35;100993.63;;;10.84
45393;BMP280;31129;44.810;10.334;2023-03-19T03:26:01;100998.94;;;10.79
45393;BMP280;31129;44.810;10.334;2023-03-19T03:28:28;101006.38;;;10.87
45393;BMP280;31129;44.810;10.334;2023-03-19T03:30:58;100998.03;;;10.82
45393;BMP280;31129;44.810;10.334;2023-03-19T03:33:23;101010.91;;;10.81
45393;BMP280;31129;44.810;10.334;2023-03-19T03:35:49;101014.97;;;10.86
45393;BMP280;31129;44.810;10.334;2023-03-19T03:38:15;101014.72;;;10.93
45393;BMP280;31129;44.810;10.334;2023-03-19T03:40:40;101003.94;;;10.89
45393;BMP280;31129;44.810;10.334;2023-03-19T03:43:06;101002.09;;;10.95
45393;BMP280;31129;44.810;10.334;2023-03-19T03:45:33;101004.06;;;10.95
45393;BMP280;31129;44.810;10.334;2023-03-19T03:47:59;101003.03;;;10.92
45393;BMP280;31129;44.810;10.334;2023-03-19T03:50:24;101004.38;;;10.97
45393;BMP280;31129;44.810;10.334;2023-03-19T03:52:52;101004.50;;;11.02
45393;BMP280;31129;44.810;10.334;2023-03-19T03:55:18;101018.59;;;11.01
45393;BMP280;31129;44.810;10.334;2023-03-19T03:57:43;101016.19;;;11.03
45393;BMP280;31129;44.810;10.334;2023-03-19T04:00:09;101019.06;;;10.99
45393;BMP280;31129;44.810;10.334;2023-03-19T04:02:43;101013.94;;;10.92
45393;BMP280;31129;44.810;10.334;2023-03-19T04:05:12;101018.66;;;10.83
45393;BMP280;31129;44.810;10.334;2023-03-19T04:07:37;101015.03;;;10.77
45393;BMP280;31129;44.810;10.334;2023-03-19T04:10:04;101030.19;;;10.78
45393;BMP280;31129;44.810;10.334;2023-03-19T04:12:30;101030.47;;;10.71
45393;BMP280;31129;44.810;10.334;2023-03-19T04:14:55;101025.03;;;10.80
45393;BMP280;31129;44.810;10.334;2023-03-19T04:17:21;101028.38;;;10.65
45393;BMP280;31129;44.810;10.334;2023-03-19T04:19:48;101036.72;;;10.71
45393;BMP280;31129;44.810;10.334;2023-03-19T04:22:13;101031.56;;;10.73
45393;BMP280;31129;44.810;10.334;2023-03-19T04:24:40;101036.25;;;10.63
45393;BMP280;31129;44.810;10.334;2023-03-19T04:27:06;101035.66;;;10.68
45393;BMP280;31129;44.810;10.334;2023-03-19T04:29:33;101039.44;;;10.62
45393;BMP280;31129;44.810;10.334;2023-03-19T04:31:59;101040.19;;;10.53
45393;BMP280;31129;44.810;10.334;2023-03-19T04:34:25;101042.78;;;10.57
45393;BMP280;31129;44.810;10.334;2023-03-19T04:36:50;101042.78;;;10.57
45393;BMP280;31129;44.810;10.334;2023-03-19T04:39:16;101046.25;;;10.48
45393;BMP280;31129;44.810;10.334;2023-03-19T04:41:42;101032.16;;;10.50
45393;BMP280;31129;44.810;10.334;2023-03-19T04:44:28;101040.00;;;10.20
45393;BMP280;31129;44.810;10.334;2023-03-19T04:46:56;101047.91;;;10.37
45393;BMP280;31129;44.810;10.334;2023-03-19T04:49:23;101055.63;;;10.38
45393;BMP280;31129;44.810;10.334;2023-03-19T04:51:50;101062.31;;;10.37
45393;BMP280;31129;44.810;10.334;2023-03-19T04:54:15;101060.19;;;10.32
45393;BMP280;31129;44.810;10.334;2023-03-19T04:56:41;101063.53;;;10.27
45393;BMP280;31129;44.810;10.334;2023-03-19T04:59:09;101065.47;;;10.17
45393;BMP280;31129;44.810;10.334;2023-03-19T05:01:35;101057.88;;;10.21
45393;BMP280;31129;44.810;10.334;2023-03-19T05:04:06;101057.31;;;10.17
45393;BMP280;31129;44.810;10.334;2023-03-19T05:06:34;101059.72;;;10.15
45393;BMP280;31129;44.810;10.334;2023-03-19T05:09:01;101064.25;;;10.09
45393;BMP280;31129;44.810;10.334;2023-03-19T05:11:29;101060.88;;;10.05
45393;BMP280;31129;44.810;10.334;2023-03-19T05:14:01;101064.53;;;10.11
45393;BMP280;31129;44.810;10.334;2023-03-19T05:16:44;101061.69;;;10.15
45393;BMP280;31129;44.810;10.334;2023-03-19T05:19:09;101056.38;;;10.11
45393;BMP280;31129;44.810;10.334;2023-03-19T05:21:38;101055.31;;;10.18
45393;BMP280;31129;44.810;10.334;2023-03-19T05:24:05;101052.59;;;10.18
45393;BMP280;31129;44.810;10.334;2023-03-19T05:26:34;101047.91;;;10.18
45393;BMP280;31129;44.810;10.334;2023-03-19T05:29:02;101056.69;;;10.13
45393;BMP280;31129;44.810;10.334;2023-03-19T05:31:39;101058.47;;;10.07
45393;BMP280;31129;44.810;10.334;2023-03-19T05:34:05;101055.28;;;10.00
45393;BMP280;31129;44.810;10.334;2023-03-19T05:36:32;101066.63;;;9.98
45393;BMP280;31129;44.810;10.334;2023-03-19T05:39:10;101077.25;;;10.05
45393;BMP280;31129;44.810;10.334;2023-03-19T05:41:38;101073.47;;;10.12
45393;BMP280;31129;44.810;10.334;2023-03-19T05:44:05;101076.34;;;10.08
45393;BMP280;31129;44.810;10.334;2023-03-19T05:46:49;101078.63;;;10.01
45393;BMP280;31129;44.810;10.334;2023-03-19T05:49:16;101077.94;;;9.87
45393;BMP280;31129;44.810;10.334;2023-03-19T05:51:42;101077.09;;;10.00
45393;BMP280;31129;44.810;10.334;2023-03-19T05:54:08;101085.06;;;9.94
45393;BMP280;31129;44.810;10.334;2023-03-19T05:56:38;101088.91;;;10.06
45393;BMP280;31129;44.810;10.334;2023-03-19T05:59:24;101094.31;;;9.87
45393;BMP280;31129;44.810;10.334;2023-03-19T06:02:01;101088.38;;;9.80
45393;BMP280;31129;44.810;10.334;2023-03-19T06:04:27;101092.50;;;9.84
45393;BMP280;31129;44.810;10.334;2023-03-19T06:06:52;101085.59;;;10.02
45393;BMP280;31129;44.810;10.334;2023-03-19T06:09:18;101089.97;;;9.99
45393;BMP280;31129;44.810;10.334;2023-03-19T06:11:50;101088.31;;;10.02
45393;BMP280;31129;44.810;10.334;2023-03-19T06:14:45;101091.63;;;10.06
45393;BMP280;31129;44.810;10.334;2023-03-19T06:17:38;101087.84;;;10.03
45393;BMP280;31129;44.810;10.334;2023-03-19T06:20:07;101088.75;;;10.00
45393;BMP280;31129;44.810;10.334;2023-03-19T06:22:34;101097.84;;;10.06
45393;BMP280;31129;44.810;10.334;2023-03-19T06:25:00;101104.41;;;10.18
45393;BMP280;31129;44.810;10.334;2023-03-19T06:27:25;101104.53;;;10.14
45393;BMP280;31129;44.810;10.334;2023-03-19T06:29:58;101105.22;;;10.27
45393;BMP280;31129;44.810;10.334;2023-03-19T06:32:29;101109.91;;;10.27
45393;BMP280;31129;44.810;10.334;2023-03-19T06:35:02;101120.50;;;10.25
45393;BMP280;31129;44.810;10.334;2023-03-19T06:37:27;101107.00;;;10.30
45393;BMP280;31129;44.810;10.334;2023-03-19T06:39:53;101115.34;;;10.27
45393;BMP280;31129;44.810;10.334;2023-03-19T06:42:22;101115.81;;;10.25
45393;BMP280;31129;44.810;10.334;2023-03-19T06:44:48;101118.56;;;10.44
45393;BMP280;31129;44.810;10.334;2023-03-19T06:47:13;101123.06;;;10.38
45393;BMP280;31129;44.810;10.334;2023-03-19T06:49:40;101116.41;;;10.39
45393;BMP280;31129;44.810;10.334;2023-03-19T06:52:06;101121.31;;;10.44
45393;BMP280;31129;44.810;10.334;2023-03-19T06:54:31;101130.53;;;10.55
45393;BMP280;31129;44.810;10.334;2023-03-19T06:56:57;101139.38;;;10.59
45393;BMP280;31129;44.810;10.334;2023-03-19T06:59:23;101137.66;;;10.62
45393;BMP280;31129;44.810;10.334;2023-03-19T07:01:49;101148.09;;;10.54
45393;BMP280;31129;44.810;10.334;2023-03-19T07:04:15;101139.38;;;10.59
45393;BMP280;31129;44.810;10.334;2023-03-19T07:06:40;101141.47;;;10.64
45393;BMP280;31129;44.810;10.334;2023-03-19T07:09:05;101141.31;;;10.68
45393;BMP280;31129;44.810;10.334;2023-03-19T07:11:31;101140.72;;;10.73
45393;BMP280;31129;44.810;10.334;2023-03-19T07:13:56;101138.00;;;10.73
45393;BMP280;31129;44.810;10.334;2023-03-19T07:16:22;101148.91;;;10.73
45393;BMP280;31129;44.810;10.334;2023-03-19T07:18:47;101151.66;;;10.73
45393;BMP280;31129;44.810;10.334;2023-03-19T07:21:12;101147.09;;;10.79
45393;BMP280;31129;44.810;10.334;2023-03-19T07:23:38;101149.81;;;10.79
45393;BMP280;31129;44.810;10.334;2023-03-19T07:26:04;101156.38;;;10.91
45393;BMP280;31129;44.810;10.334;2023-03-19T07:28:29;101155.16;;;10.92
45393;BMP280;31129;44.810;10.334;2023-03-19T07:30:55;101156.03;;;10.98
45393;BMP280;31129;44.810;10.334;2023-03-19T07:33:21;101159.84;;;11.00
45393;BMP280;31129;44.810;10.334;2023-03-19T07:35:47;101161.06;;;11.09
45393;BMP280;31129;44.810;10.334;2023-03-19T07:38:12;101165.91;;;11.05
45393;BMP280;31129;44.810;10.334;2023-03-19T07:40:39;101161.50;;;10.98
45393;BMP280;31129;44.810;10.334;2023-03-19T07:43:04;101170.94;;;11.06
45393;BMP280;31129;44.810;10.334;2023-03-19T07:45:30;101173.34;;;11.13
45393;BMP280;31129;44.810;10.334;2023-03-19T07:47:55;101170.00;;;11.09
45393;BMP280;31129;44.810;10.334;2023-03-19T07:50:20;101171.06;;;11.12
45393;BMP280;31129;44.810;10.334;2023-03-19T07:52:46;101171.97;;;11.18
45393;BMP280;31129;44.810;10.334;2023-03-19T07:55:13;101174.69;;;11.27
45393;BMP280;31129;44.810;10.334;2023-03-19T07:57:38;101173.34;;;11.22
45393;BMP280;31129;44.810;10.334;2023-03-19T08:00:05;101170.59;;;11.13
45393;BMP280;31129;44.810;10.334;2023-03-19T08:02:38;101168.50;;;11.17
45393;BMP280;31129;44.810;10.334;2023-03-19T08:05:03;101172.72;;;11.27
45393;BMP280;31129;44.810;10.334;2023-03-19T08:07:30;101172.13;;;11.23
45393;BMP280;31129;44.810;10.334;2023-03-19T08:09:56;101174.69;;;11.36
45393;BMP280;31129;44.810;10.334;2023-03-19T08:12:23;101168.44;;;11.45
45393;BMP280;31129;44.810;10.334;2023-03-19T08:14:49;101180.28;;;11.51
45393;BMP280;31129;44.810;10.334;2023-03-19T08:17:14;101186.47;;;11.60
45393;BMP280;31129;44.810;10.334;2023-03-19T08:19:40;101184.97;;;11.68
45393;BMP280;31129;44.810;10.334;2023-03-19T08:22:06;101180.97;;;11.79
45393;BMP280;31129;44.810;10.334;2023-03-19T08:24:31;101181.56;;;11.83
45393;BMP280;31129;44.810;10.334;2023-03-19T08:26:57;101180.16;;;11.96
45393;BMP280;31129;44.810;10.334;2023-03-19T08:29:22;101179.34;;;12.05
45393;BMP280;31129;44.810;10.334;2023-03-19T08:31:50;101179.63;;;12.07
45393;BMP280;31129;44.810;10.334;2023-03-19T08:34:16;101185.59;;;12.05
45393;BMP280;31129;44.810;10.334;2023-03-19T08:36:41;101180.06;;;12.15
45393;BMP280;31129;44.810;10.334;2023-03-19T08:39:06;101179.38;;;12.29
45393;BMP280;31129;44.810;10.334;2023-03-19T08:41:32;101187.53;;;12.38
45393;BMP280;31129;44.810;10.334;2023-03-19T08:43:58;101186.78;;;12.37
45393;BMP280;31129;44.810;10.334;2023-03-19T08:46:23;101194.66;;;12.44
45393;BMP280;31129;44.810;10.334;2023-03-19T08:48:49;101190.34;;;12.53
45393;BMP280;31129;44.810;10.334;2023-03-19T08:51:15;101196.81;;;12.64
45393;BMP280;31129;44.810;10.334;2023-03-19T08:53:40;101200.66;;;12.58
45393;BMP280;31129;44.810;10.334;2023-03-19T08:56:06;101199.84;;;12.42
45393;BMP280;31129;44.810;10.334;2023-03-19T08:58:32;101206.69;;;12.38
45393;BMP280;31129;44.810;10.334;2023-03-19T09:01:06;101211.00;;;12.54
45393;BMP280;31129;44.810;10.334;2023-03-19T09:03:33;101211.81;;;12.54
45393;BMP280;31129;44.810;10.334;2023-03-19T09:05:59;101198.44;;;12.47
45393;BMP280;31129;44.810;10.334;2023-03-19T09:08:25;101205.06;;;12.55
45393;BMP280;31129;44.810;10.334;2023-03-19T09:10:51;101210.50;;;12.64
45393;BMP280;31129;44.810;10.334;2023-03-19T09:13:16;101213.13;;;12.59
45393;BMP280;31129;44.810;10.334;2023-03-19T09:15:42;101211.94;;;12.51
45393;BMP280;31129;44.810;10.334;2023-03-19T09:18:07;101209.63;;;12.58
45393;BMP280;31129;44.810;10.334;2023-03-19T09:20:32;101202.22;;;12.73
45393;BMP280;31129;44.810;10.334;2023-03-19T09:22:58;101201.09;;;12.80
45393;BMP280;31129;44.810;10.334;2023-03-19T09:25:23;101207.38;;;12.95
45393;BMP280;31129;44.810;10.334;2023-03-19T09:27:48;101201.84;;;13.04
45393;BMP280;31129;44.810;10.334;2023-03-19T09:30:14;101197.19;;;13.10
45393;BMP280;31129;44.810;10.334;2023-03-19T09:32:40;101195.81;;;13.15
45393;BMP280;31129;44.810;10.334;2023-03-19T09:35:06;101191.38;;;13.32
45393;BMP280;31129;44.810;10.334;2023-03-19T09:37:34;101187.78;;;13.55
45393;BMP280;31129;44.810;10.334;2023-03-19T09:40:00;101182.50;;;13.67
45393;BMP280;31129;44.810;10.334;2023-03-19T09:45:35;101194.00;;;13.85
45393;BMP280;31129;44.810;10.334;2023-03-19T09:48:06;101194.66;;;13.80
45393;BMP280;31129;44.810;10.334;2023-03-19T09:50:37;101197.44;;;13.66
45393;BMP280;31129;44.810;10.334;2023-03-19T09:53:10;101192.75;;;13.86
45393;BMP280;31129;44.810;10.334;2023-03-19T09:55:43;101190.13;;;13.92
45393;BMP280;31129;44.810;10.334;2023-03-19T09:58:23;101198.69;;;14.00
45393;BMP280;31129;44.810;10.334;2023-03-19T10:00:52;101194.22;;;14.02
45393;BMP280;31129;44.810;10.334;2023-03-19T10:13:54;101196.28;;;14.22
45393;BMP280;31129;44.810;10.334;2023-03-19T10:16:23;101192.91;;;14.33
45393;BMP280;31129;44.810;10.334;2023-03-19T10:18:52;101198.31;;;14.47
45393;BMP280;31129;44.810;10.334;2023-03-19T10:21:42;101198.97;;;14.57
45393;BMP280;31129;44.810;10.334;2023-03-19T10:24:13;101195.03;;;14.63
45393;BMP280;31129;44.810;10.334;2023-03-19T10:26:40;101192.50;;;14.60
45393;BMP280;31129;44.810;10.334;2023-03-19T10:29:19;101191.91;;;14.71
45393;BMP280;31129;44.810;10.334;2023-03-19T10:32:14;101187.69;;;14.55
45393;BMP280;31129;44.810;10.334;2023-03-19T10:34:51;101186.19;;;14.54
45393;BMP280;31129;44.810;10.334;2023-03-19T10:37:26;101187.28;;;14.62
45393;BMP280;31129;44.810;10.334;2023-03-19T10:40:01;101181.84;;;14.68
45393;BMP280;31129;44.810;10.334;2023-03-19T10:45:14;101189.22;;;15.02
45393;BMP280;31129;44.810;10.334;2023-03-19T10:47:43;101180.38;;;14.92
45393;BMP280;31129;44.810;10.334;2023-03-19T10:50:20;101188.72;;;15.03
45393;BMP280;31129;44.810;10.334;2023-03-19T10:52:51;101177.81;;;14.89
45393;BMP280;31129;44.810;10.334;2023-03-19T10:55:24;101179.75;;;14.83
45393;BMP280;31129;44.810;10.334;2023-03-19T10:57:54;101179.84;;;15.14
45393;BMP280;31129;44.810;10.334;2023-03-19T11:00:27;101176.09;;;14.91
45393;BMP280;31129;44.810;10.334;2023-03-19T11:02:56;101181.16;;;14.73
45393;BMP280;31129;44.810;10.334;2023-03-19T11:05:32;101173.41;;;14.71
45393;BMP280;31129;44.810;10.334;2023-03-19T11:10:29;101169.22;;;14.76
45393;BMP280;31129;44.810;10.334;2023-03-19T11:13:05;101165.84;;;15.18
45393;BMP280;31129;44.810;10.334;2023-03-19T11:15:39;101167.34;;;15.45
45393;BMP280;31129;44.810;10.334;2023-03-19T11:18:07;101171.78;;;15.36
45393;BMP280;31129;44.810;10.334;2023-03-19T11:20:39;101163.88;;;15.18
45393;BMP280;31129;44.810;10.334;2023-03-19T11:23:12;101158.38;;;14.92
45393;BMP280;31129;44.810;10.334;2023-03-19T11:25:42;101158.06;;;14.85
45393;BMP280;31129;44.810;10.334;2023-03-19T11:28:13;101156.00;;;15.06
45393;BMP280;31129;44.810;10.334;2023-03-19T11:39:24;101143.31;;;15.76
45393;BMP280;31129;44.810;10.334;2023-03-19T11:42:16;101148.19;;;16.04
45393;BMP280;31129;44.810;10.334;2023-03-19T11:50:59;101146.94;;;16.05
45393;BMP280;31129;44.810;10.334;2023-03-19T11:53:41;101140.56;;;15.76
45393;BMP280;31129;44.810;10.334;2023-03-19T11:56:30;101138.66;;;15.99
45393;BMP280;31129;44.810;10.334;2023-03-19T12:04:52;101126.09;;;16.52
45393;BMP280;31129;44.810;10.334;2023-03-19T12:07:29;101124.97;;;16.22
45393;BMP280;31129;44.810;10.334;2023-03-19T12:10:15;101116.00;;;16.38
45393;BMP280;31129;44.810;10.334;2023-03-19T12:12:50;101112.00;;;16.44
45393;BMP280;31129;44.810;10.334;2023-03-19T12:34:41;101087.66;;;16.15
45393;BMP280;31129;44.810;10.334;2023-03-19T12:37:26;101088.13;;;16.08
45393;BMP280;31129;44.810;10.334;2023-03-19T12:40:11;101088.28;;;15.88
45393;BMP280;31129;44.810;10.334;2023-03-19T12:42:38;101083.34;;;15.97
45393;BMP280;31129;44.810;10.334;2023-03-19T12:45:58;101084.38;;;16.05
45393;BMP280;31129;44.810;10.334;2023-03-19T12:48:12;101090.94;;;16.30
45393;BMP280;31129;44.810;10.334;2023-03-19T12:50:43;101088.47;;;16.49
45393;BMP280;31129;44.810;10.334;2023-03-19T12:53:42;101088.50;;;16.60
45393;BMP280;31129;44.810;10.334;2023-03-19T12:56:19;101078.50;;;16.63
45393;BMP280;31129;44.810;10.334;2023-03-19T12:58:55;101080.22;;;16.60
45393;BMP280;31129;44.810;10.334;2023-03-19T13:01:38;101081.44;;;16.48
45393;BMP280;31129;44.810;10.334;2023-03-19T13:04:14;101069.72;;;16.42
45393;BMP280;31129;44.810;10.334;2023-03-19T13:06:48;101066.16;;;16.30
45393;BMP280;31129;44.810;10.334;2023-03-19T13:09:26;101066.88;;;16.08
45393;BMP280;31129;44.810;10.334;2023-03-19T13:12:38;101059.56;;;15.94
45393;BMP280;31129;44.810;10.334;2023-03-19T13:15:14;101055.81;;;15.97
45393;BMP280;31129;44.810;10.334;2023-03-19T13:20:19;101055.25;;;15.82
45393;BMP280;31129;44.810;10.334;2023-03-19T13:23:00;101057.75;;;15.80
45393;BMP280;31129;44.810;10.334;2023-03-19T13:25:34;101056.22;;;15.79
45393;BMP280;31129;44.810;10.334;2023-03-19T13:28:08;101056.78;;;15.89
45393;BMP280;31129;44.810;10.334;2023-03-19T13:30:35;101047.25;;;15.84
45393;BMP280;31129;44.810;10.334;2023-03-19T13:33:12;101052.00;;;15.89
45393;BMP280;31129;44.810;10.334;2023-03-19T13:35:43;101055.28;;;15.88
45393;BMP280;31129;44.810;10.334;2023-03-19T13:38:24;101056.06;;;15.99
45393;BMP280;31129;44.810;10.334;2023-03-19T13:40:55;101057.03;;;15.91
45393;BMP280;31129;44.810;10.334;2023-03-19T13:43:38;101055.03;;;15.91
45393;BMP280;31129;44.810;10.334;2023-03-19T13:59:24;101033.41;;;16.88
45393;BMP280;31129;44.810;10.334;2023-03-19T14:01:51;101027.34;;;17.01
45393;BMP280;31129;44.810;10.334;2023-03-19T14:04:23;101037.13;;;16.90
45393;BMP280;31129;44.810;10.334;2023-03-19T14:07:18;101030.88;;;16.79
45393;BMP280;31129;44.810;10.334;2023-03-19T14:09:50;101022.09;;;16.80
45393;BMP280;31129;44.810;10.334;2023-03-19T14:12:32;101030.88;;;16.84
45393;BMP280;31129;44.810;10.334;2023-03-19T14:15:12;101022.59;;;16.90
45393;BMP280;31129;44.810;10.334;2023-03-19T14:17:53;101021.34;;;16.85
45393;BMP280;31129;44.810;10.334;2023-03-19T14:20:29;101014.84;;;16.77
45393;BMP280;31129;44.810;10.334;2023-03-19T14:26:05;101004.59;;;16.72
45393;BMP280;31129;44.810;10.334;2023-03-19T14:31:35;101009.09;;;16.70
45393;BMP280;31129;44.810;10.334;2023-03-19T14:39:31;101007.09;;;16.53
45393;BMP280;31129;44.810;10.334;2023-03-19T14:47:35;100999.56;;;16.48
45393;BMP280;31129;44.810;10.334;2023-03-19T14:55:13;101007.59;;;16.41
45393;BMP280;31129;44.810;10.334;2023-03-19T14:57:39;101007.06;;;16.31
45393;BMP280;31129;44.810;10.334;2023-03-19T15:00:12;101008.34;;;16.36
45393;BMP280;31129;44.810;10.334;2023-03-19T15:02:40;101008.06;;;16.28
45393;BMP280;31129;44.810;10.334;2023-03-19T15:05:20;101006.03;;;16.17
45393;BMP280;31129;44.810;10.334;2023-03-19T15:07:49;101009.81;;;16.14
45393;BMP280;31129;44.810;10.334;2023-03-19T15:10:19;101001.06;;;16.10
45393;BMP280;31129;44.810;10.334;2023-03-19T15:13:00;101012.78;;;16.11
45393;BMP280;31129;44.810;10.334;2023-03-19T15:18:00;101015.03;;;16.07
45393;BMP280;31129;44.810;10.334;2023-03-19T15:20:32;101016.03;;;16.04
45393;BMP280;31129;44.810;10.334;2023-03-19T15:23:00;101012.03;;;15.99
45393;BMP280;31129;44.810;10.334;2023-03-19T15:25:26;101020.28;;;15.99
45393;BMP280;31129;44.810;10.334;2023-03-19T15:28:11;101024.03;;;15.96
45393;BMP280;31129;44.810;10.334;2023-03-19T15:30:37;101024.50;;;15.95
45393;BMP280;31129;44.810;10.334;2023-03-19T15:33:03;101028.75;;;15.90
45393;BMP280;31129;44.810;10.334;2023-03-19T15:35:34;101025.47;;;15.86
45393;BMP280;31129;44.810;10.334;2023-03-19T15:38:06;101025.22;;;15.84
45393;BMP280;31129;44.810;10.334;2023-03-19T15:40:34;101030.22;;;15.80
45393;BMP280;31129;44.810;10.334;2023-03-19T15:43:01;101026.72;;;15.79
45393;BMP280;31129;44.810;10.334;2023-03-19T15:45:28;101025.72;;;15.77